Time,TemperatureF,DewpointF,PressureIn,WindDirection,WindDirectionDegrees,WindSpeedMPH,WindSpeedGustMPH,Humidity,HourlyPrecipIn,Conditions,Clouds,dailyrainin,SoftwareType,DateUTC
2013-01-07 00:13:00,35.5,34.0,30.34,NNW,338,0.0,0.0,93,0.00,,,0.00,weatherlink.com 1.10,2013-01-07 06:13:00,
2013-01-07 00:29:00,35.1,33.0,30.34,NNW,338,0.0,0.0,92,0.00,,,0.00,weatherlink.com 1.10,2013-01-07 06:29:00,
2013-01-07 00:44:00,34.7,33.0,30.34,NNW,338,0.0,0.0,92,0.00,,,0.00,weatherlink.com 1.10,2013-01-07 06:44:00,
2013-01-07 00:59:00,34.7,33.0,30.33,NNW,338,0.0,1.0,93,0.00,,,0.00,weatherlink.com 1.10,2013-01-07 06:59:00,
2013-01-07 01:14:00,34.5,33.0,30.33,NNW,338,0.0,0.0,93,0.00,,,0.00,weatherlink.com 1.10,2013-01-07 07:14:00,
2013-01-07 01:29:00,34.0,32.0,30.33,NNW,338,0.0,0.0,93,0.00,,,0.00,weatherlink.com 1.10,2013-01-07 07:29:00,
2013-01-07 01:44:00,33.9,32.0,30.33,NNW,338,0.0,0.0,93,0.00,,,0.00,weatherlink.com 1.10,2013-01-07 07:44:00,
2013-01-07 01:59:00,33.7,32.0,30.32,NNW,338,0.0,0.0,93,0.00,,,0.00,weatherlink.com 1.10,2013-01-07 07:59:00,
2013-01-07 02:14:00,33.2,31.0,30.32,NNW,338,0.0,0.0,93,0.00,,,0.00,weatherlink.com 1.10,2013-01-07 08:14:00,
2013-01-07 02:29:00,33.1,32.0,30.32,NNW,338,0.0,0.0,94,0.00,,,0.00,weatherlink.com 1.10,2013-01-07 08:29:00,
2013-01-07 02:44:00,33.1,32.0,30.32,NNW,338,0.0,1.0,94,0.00,,,0.00,weatherlink.com 1.10,2013-01-07 08:44:00,
2013-01-07 02:59:00,33.2,32.0,30.32,NNW,338,0.0,1.0,94,0.00,,,0.00,weatherlink.com 1.10,2013-01-07 08:59:00,
2013-01-07 03:14:00,33.0,32.0,30.32,NNW,338,0.0,0.0,94,0.00,,,0.00,weatherlink.com 1.10,2013-01-07 09:14:00,
2013-01-07 03:29:00,32.7,31.0,30.31,NNW,338,0.0,0.0,94,0.00,,,0.00,weatherlink.com 1.10,2013-01-07 09:29:00,
2013-01-07 03:44:00,32.6,31.0,30.32,NNW,338,0.0,0.0,94,0.00,,,0.00,weatherlink.com 1.10,2013-01-07 09:44:00,
2013-01-07 03:59:00,32.2,31.0,30.31,NNW,338,0.0,0.0,94,0.00,,,0.00,weatherlink.com 1.10,2013-01-07 09:59:00,
2013-01-07 04:18:00,32.5,31.0,30.31,NNW,338,0.0,0.0,94,0.00,,,0.00,weatherlink.com 1.10,2013-01-07 10:18:00,
2013-01-07 04:29:00,32.1,31.0,30.31,NNW,338,0.0,0.0,94,0.00,,,0.00,weatherlink.com 1.10,2013-01-07 10:29:00,
2013-01-07 04:44:00,31.8,30.0,30.32,NNW,338,0.0,0.0,94,0.00,,,0.00,weatherlink.com 1.10,2013-01-07 10:44:00,
2013-01-07 04:59:00,31.8,30.0,30.30,NNW,338,1.0,2.0,94,0.00,,,0.00,weatherlink.com 1.10,2013-01-07 10:59:00,
2013-01-07 05:14:00,31.7,30.0,30.32,NNW,338,0.0,0.0,94,0.00,,,0.00,weatherlink.com 1.10,2013-01-07 11:14:00,
2013-01-07 05:29:00,31.5,30.0,30.31,NNW,338,0.0,0.0,94,0.00,,,0.00,weatherlink.com 1.10,2013-01-07 11:29:00,
2013-01-07 05:44:00,31.3,30.0,30.31,NNW,338,0.0,0.0,94,0.00,,,0.00,weatherlink.com 1.10,2013-01-07 11:44:00,
2013-01-07 05:59:00,31.4,30.0,30.32,NNW,338,0.0,0.0,94,0.00,,,0.00,weatherlink.com 1.10,2013-01-07 11:59:00,
2013-01-07 06:14:00,31.3,30.0,30.32,NNW,338,0.0,0.0,94,0.00,,,0.00,weatherlink.com 1.10,2013-01-07 12:14:00,
2013-01-07 06:29:00,31.3,30.0,30.32,NNW,338,0.0,0.0,94,0.00,,,0.00,weatherlink.com 1.10,2013-01-07 12:29:00,
2013-01-07 06:44:00,31.3,30.0,30.32,NNW,338,0.0,1.0,94,0.00,,,0.00,weatherlink.com 1.10,2013-01-07 12:44:00,
2013-01-07 06:59:00,31.1,30.0,30.33,NNW,338,0.0,0.0,94,0.00,,,0.00,weatherlink.com 1.10,2013-01-07 12:59:00,
2013-01-07 07:14:00,30.8,29.0,30.33,NNW,338,0.0,0.0,94,0.00,,,0.00,weatherlink.com 1.10,2013-01-07 13:14:00,
2013-01-07 07:29:00,30.8,29.0,30.34,NNW,338,0.0,0.0,94,0.00,,,0.00,weatherlink.com 1.10,2013-01-07 13:29:00,
2013-01-07 07:44:00,31.1,30.0,30.34,NNW,338,0.0,0.0,95,0.00,,,0.00,weatherlink.com 1.10,2013-01-07 13:44:00,
2013-01-07 07:59:00,31.3,30.0,30.35,NNW,338,0.0,0.0,95,0.00,,,0.00,weatherlink.com 1.10,2013-01-07 13:59:00,
2013-01-07 08:14:00,31.8,31.0,30.35,NNW,338,0.0,1.0,95,0.00,,,0.00,weatherlink.com 1.10,2013-01-07 14:14:00,
2013-01-07 08:29:00,32.5,31.0,30.35,NNW,338,0.0,0.0,95,0.00,,,0.00,weatherlink.com 1.10,2013-01-07 14:29:00,
2013-01-07 08:44:00,33.6,32.0,30.36,NNW,338,0.0,1.0,95,0.00,,,0.00,weatherlink.com 1.10,2013-01-07 14:44:00,
2013-01-07 08:59:00,36.5,35.0,30.35,NNW,336,0.0,2.0,95,0.00,,,0.00,weatherlink.com 1.10,2013-01-07 14:59:00,
2013-01-07 09:14:00,39.3,38.0,30.35,NNW,336,0.0,2.0,96,0.01,,,0.01,weatherlink.com 1.10,2013-01-07 15:14:00,
2013-01-07 09:29:00,42.5,40.0,30.34,NE,35,0.0,6.0,90,0.01,,,0.01,weatherlink.com 1.10,2013-01-07 15:29:00,
2013-01-07 09:44:00,44.3,40.0,30.35,East,82,0.0,5.0,84,0.01,,,0.01,weatherlink.com 1.10,2013-01-07 15:44:00,
2013-01-07 09:59:00,45.3,40.0,30.35,East,90,1.0,5.0,80,0.00,,,0.01,weatherlink.com 1.10,2013-01-07 15:59:00,
2013-01-07 10:15:00,46.9,39.0,30.36,ENE,74,1.0,5.0,75,0.00,,,0.01,weatherlink.com 1.10,2013-01-07 16:15:00,
2013-01-07 10:30:00,48.3,40.0,30.36,ENE,60,0.0,4.0,72,0.00,,,0.01,weatherlink.com 1.10,2013-01-07 16:30:00,
2013-01-07 10:45:00,49.2,39.0,30.35,SSE,155,0.0,5.0,68,0.00,,,0.01,weatherlink.com 1.10,2013-01-07 16:45:00,
2013-01-07 11:00:00,49.7,38.0,30.33,SSE,154,6.0,7.0,64,0.00,,,0.01,weatherlink.com 1.10,2013-01-07 17:00:00,
2013-01-07 11:15:00,50.0,39.0,30.33,ESE,113,0.0,5.0,65,0.00,,,0.01,weatherlink.com 1.10,2013-01-07 17:15:00,
2013-01-07 11:30:00,50.4,38.0,30.32,ENE,68,0.0,5.0,62,0.00,,,0.01,weatherlink.com 1.10,2013-01-07 17:30:00,
2013-01-07 11:45:00,51.0,38.0,30.30,NE,51,6.0,6.0,62,0.00,,,0.01,weatherlink.com 1.10,2013-01-07 17:45:00,
2013-01-07 12:00:00,51.9,38.0,30.30,ESE,120,4.0,5.0,60,0.00,,,0.01,weatherlink.com 1.10,2013-01-07 18:00:00,
2013-01-07 12:15:00,52.9,38.0,30.28,North,360,0.0,5.0,57,0.00,,,0.01,weatherlink.com 1.10,2013-01-07 18:15:00,
2013-01-07 12:30:00,53.6,38.0,30.28,East,99,2.0,6.0,55,0.00,,,0.01,weatherlink.com 1.10,2013-01-07 18:30:00,
2013-01-07 12:45:00,54.6,38.0,30.27,ESE,113,0.0,3.0,54,0.00,,,0.01,weatherlink.com 1.10,2013-01-07 18:45:00,
2013-01-07 13:00:00,53.9,39.0,30.26,NNW,337,2.0,4.0,57,0.00,,,0.01,weatherlink.com 1.10,2013-01-07 19:00:00,
2013-01-07 13:15:00,55.1,39.0,30.25,SSE,159,2.0,3.0,56,0.00,,,0.01,weatherlink.com 1.10,2013-01-07 19:15:00,
2013-01-07 13:30:00,56.1,37.0,30.25,SE,137,3.0,5.0,49,0.00,,,0.01,weatherlink.com 1.10,2013-01-07 19:30:00,
2013-01-07 13:45:00,55.6,38.0,30.24,SE,140,0.0,3.0,51,0.00,,,0.01,weatherlink.com 1.10,2013-01-07 19:45:00,
2013-01-07 14:00:00,55.7,39.0,30.23,East,88,0.0,3.0,53,0.00,,,0.01,weatherlink.com 1.10,2013-01-07 20:00:00,
2013-01-07 14:15:00,55.2,38.0,30.22,North,5,2.0,4.0,52,0.00,,,0.01,weatherlink.com 1.10,2013-01-07 20:15:00,
2013-01-07 14:30:00,55.0,37.0,30.22,NE,43,1.0,3.0,51,0.00,,,0.01,weatherlink.com 1.10,2013-01-07 20:30:00,
2013-01-07 14:45:00,54.9,37.0,30.21,NE,34,1.0,3.0,51,0.00,,,0.01,weatherlink.com 1.10,2013-01-07 20:45:00,
2013-01-07 15:00:00,54.9,37.0,30.20,ENE,69,2.0,3.0,52,0.00,,,0.01,weatherlink.com 1.10,2013-01-07 21:00:00,
2013-01-07 15:15:00,54.9,37.0,30.21,NE,48,0.0,5.0,52,0.00,,,0.01,weatherlink.com 1.10,2013-01-07 21:15:00,
2013-01-07 15:30:00,55.2,37.0,30.21,ESE,119,1.0,3.0,50,0.00,,,0.01,weatherlink.com 1.10,2013-01-07 21:30:00,
2013-01-07 15:45:00,55.3,38.0,30.21,SE,135,1.0,5.0,52,0.00,,,0.01,weatherlink.com 1.10,2013-01-07 21:45:00,
2013-01-07 16:00:00,55.1,38.0,30.20,ESE,109,0.0,2.0,53,0.00,,,0.01,weatherlink.com 1.10,2013-01-07 22:00:00,
2013-01-07 16:15:00,54.4,38.0,30.20,East,87,0.0,3.0,55,0.00,,,0.01,weatherlink.com 1.10,2013-01-07 22:15:00,
2013-01-07 16:30:00,53.9,39.0,30.20,East,82,0.0,1.0,58,0.00,,,0.01,weatherlink.com 1.10,2013-01-07 22:30:00,
2013-01-07 16:45:00,53.4,40.0,30.19,East,82,0.0,0.0,60,0.00,,,0.01,weatherlink.com 1.10,2013-01-07 22:45:00,
2013-01-07 17:00:00,52.6,40.0,30.20,East,82,0.0,0.0,63,0.00,,,0.01,weatherlink.com 1.10,2013-01-07 23:00:00,
2013-01-07 17:15:00,51.7,40.0,30.20,East,82,0.0,0.0,65,0.00,,,0.01,weatherlink.com 1.10,2013-01-07 23:15:00,
2013-01-07 17:30:00,50.8,41.0,30.19,East,82,0.0,0.0,68,0.00,,,0.01,weatherlink.com 1.10,2013-01-07 23:30:00,
2013-01-07 17:45:00,49.9,40.0,30.19,East,82,0.0,1.0,70,0.00,,,0.01,weatherlink.com 1.10,2013-01-07 23:45:00,
2013-01-07 18:00:00,49.0,41.0,30.18,East,82,0.0,0.0,74,0.00,,,0.01,weatherlink.com 1.10,2013-01-08 00:00:00,
2013-01-07 18:15:00,48.3,41.0,30.19,East,82,0.0,0.0,76,0.00,,,0.01,weatherlink.com 1.10,2013-01-08 00:15:00,
2013-01-07 18:30:00,47.9,41.0,30.18,East,82,0.0,0.0,76,0.00,,,0.01,weatherlink.com 1.10,2013-01-08 00:30:00,
2013-01-07 18:45:00,47.7,41.0,30.18,East,82,0.0,0.0,78,0.00,,,0.01,weatherlink.com 1.10,2013-01-08 00:45:00,
2013-01-07 19:00:00,47.0,41.0,30.17,East,82,0.0,2.0,81,0.00,,,0.01,weatherlink.com 1.10,2013-01-08 01:00:00,
2013-01-07 19:16:00,46.0,41.0,30.18,East,82,0.0,1.0,82,0.00,,,0.01,weatherlink.com 1.10,2013-01-08 01:16:00,
2013-01-07 19:31:00,45.3,40.0,30.19,East,82,0.0,0.0,82,0.00,,,0.01,weatherlink.com 1.10,2013-01-08 01:31:00,
2013-01-07 19:46:00,45.2,40.0,30.19,East,82,0.0,0.0,83,0.00,,,0.01,weatherlink.com 1.10,2013-01-08 01:46:00,
2013-01-07 20:01:00,45.4,41.0,30.18,East,82,0.0,0.0,84,0.00,,,0.01,weatherlink.com 1.10,2013-01-08 02:01:00,
2013-01-07 20:16:00,45.7,41.0,30.18,East,82,0.0,0.0,84,0.00,,,0.01,weatherlink.com 1.10,2013-01-08 02:16:00,
2013-01-07 20:31:00,45.5,41.0,30.18,East,82,0.0,1.0,85,0.00,,,0.01,weatherlink.com 1.10,2013-01-08 02:31:00,
2013-01-07 20:46:00,45.0,41.0,30.18,East,82,0.0,1.0,85,0.00,,,0.01,weatherlink.com 1.10,2013-01-08 02:46:00,
2013-01-07 21:01:00,45.2,41.0,30.18,East,82,0.0,0.0,86,0.00,,,0.01,weatherlink.com 1.10,2013-01-08 03:01:00,
2013-01-07 21:16:00,45.6,42.0,30.17,East,82,0.0,0.0,86,0.00,,,0.01,weatherlink.com 1.10,2013-01-08 03:16:00,
2013-01-07 21:31:00,45.8,42.0,30.18,East,82,0.0,0.0,85,0.00,,,0.01,weatherlink.com 1.10,2013-01-08 03:31:00,
2013-01-07 21:46:00,46.1,42.0,30.17,East,82,0.0,1.0,85,0.00,,,0.01,weatherlink.com 1.10,2013-01-08 03:46:00,
2013-01-07 22:01:00,46.0,41.0,30.17,East,82,0.0,1.0,84,0.00,,,0.01,weatherlink.com 1.10,2013-01-08 04:01:00,
2013-01-07 22:16:00,46.2,42.0,30.16,East,82,0.0,2.0,84,0.00,,,0.01,weatherlink.com 1.10,2013-01-08 04:16:00,
2013-01-07 22:31:00,46.0,42.0,30.16,East,82,0.0,0.0,85,0.00,,,0.01,weatherlink.com 1.10,2013-01-08 04:31:00,
2013-01-07 22:46:00,45.6,41.0,30.15,East,82,0.0,0.0,84,0.00,,,0.01,weatherlink.com 1.10,2013-01-08 04:46:00,
2013-01-07 23:16:00,45.2,41.0,30.14,East,82,0.0,0.0,85,0.00,,,0.01,weatherlink.com 1.10,2013-01-08 05:16:00,
2013-01-07 23:31:00,45.6,41.0,30.14,East,82,0.0,1.0,85,0.00,,,0.01,weatherlink.com 1.10,2013-01-08 05:31:00,
2013-01-07 23:46:00,45.4,42.0,30.14,East,82,0.0,2.0,86,0.00,,,0.01,weatherlink.com 1.10,2013-01-08 05:46:00,